createdAt,value
2019-04-30T00:04:07.339Z,55.33
2019-04-30T00:10:12.318Z,50.13
2019-04-30T00:16:16.873Z,47.70
2019-04-30T00:22:30.926Z,46.33
2019-04-30T00:35:55.161Z,50.27
2019-04-30T00:41:57.050Z,50.83
2019-04-30T00:48:01.720Z,47.67
2019-04-30T00:54:06.335Z,52.00
2019-04-30T01:00:16.956Z,50.80
2019-04-30T01:06:24.717Z,64.80
2019-04-30T01:12:30.967Z,73.87
2019-04-30T01:18:32.774Z,63.63
2019-04-30T01:24:38.677Z,58.13
2019-04-30T01:30:43.673Z,52.93
2019-04-30T01:36:52.088Z,60.93
2019-04-30T01:42:54.617Z,47.97
2019-04-30T01:48:59.175Z,47.77
2019-04-30T01:55:03.801Z,42.27
2019-04-30T02:01:10.066Z,46.37
2019-04-30T02:07:14.632Z,37.33
2019-04-30T02:13:19.173Z,42.30
2019-04-30T02:19:23.727Z,37.50
2019-04-30T02:25:29.568Z,31.63
2019-04-30T02:31:34.352Z,37.53
2019-04-30T02:37:43.572Z,37.13
2019-04-30T02:43:49.782Z,41.60
2019-04-30T02:50:11.396Z,39.90
2019-04-30T02:56:02.579Z,37.07
2019-04-30T03:02:11.476Z,32.13
2019-04-30T03:08:13.522Z,39.73
2019-04-30T03:14:20.093Z,43.17
2019-04-30T03:20:35.671Z,30.70
2019-04-30T03:26:34.830Z,36.67
2019-04-30T03:32:43.141Z,53.53
2019-04-30T03:38:45.691Z,39.33
2019-04-30T03:44:50.245Z,47.27
2019-04-30T03:50:57.018Z,38.10
2019-04-30T03:57:01.202Z,36.53
2019-04-30T04:03:06.043Z,41.37
2019-04-30T04:09:21.932Z,51.03
2019-04-30T04:15:24.346Z,53.10
2019-04-30T04:21:29.976Z,54.40
2019-04-30T04:27:34.817Z,50.90
2019-04-30T04:33:39.612Z,62.80
2019-04-30T04:39:44.310Z,59.07
2019-04-30T04:45:49.830Z,57.50
2019-04-30T04:51:54.793Z,54.10
2019-04-30T04:57:59.866Z,58.50
2019-04-30T05:04:04.851Z,52.13
2019-04-30T05:10:10.132Z,56.23
2019-04-30T05:16:14.672Z,61.50
2019-04-30T05:22:19.297Z,56.70
2019-04-30T05:28:23.869Z,56.73
2019-04-30T05:34:28.835Z,53.10
2019-04-30T05:40:33.580Z,52.33
2019-04-30T05:46:39.743Z,51.07
2019-04-30T05:52:44.496Z,48.50
2019-04-30T05:58:49.501Z,46.83
2019-04-30T06:04:54.145Z,50.17
2019-04-30T06:11:00.391Z,43.20
2019-04-30T06:17:09.900Z,47.27
2019-04-30T06:23:14.778Z,38.77
2019-04-30T06:29:19.567Z,41.80
2019-04-30T06:35:24.961Z,80.30
2019-04-30T06:41:29.737Z,43.20
2019-04-30T06:47:34.676Z,39.20
2019-04-30T06:53:39.293Z,43.80
2019-04-30T06:59:43.912Z,37.57
2019-04-30T07:05:48.899Z,32.20
2019-04-30T07:11:53.416Z,41.33
2019-04-30T07:17:59.092Z,33.73
2019-04-30T07:24:03.812Z,60.90
2019-04-30T07:30:09.939Z,41.53
2019-04-30T07:36:14.768Z,25.63
2019-04-30T07:42:19.401Z,24.40
2019-04-30T07:48:26.562Z,30.83
2019-04-30T07:54:30.263Z,29.63
2019-04-30T08:00:34.957Z,30.00
2019-04-30T08:06:39.946Z,43.23
2019-04-30T08:12:45.386Z,29.73
2019-04-30T08:18:50.380Z,26.30
2019-04-30T08:24:54.940Z,23.87
2019-04-30T08:30:59.489Z,28.57
2019-04-30T08:37:16.762Z,26.17
2019-04-30T08:43:10.414Z,28.33
2019-04-30T08:49:16.090Z,29.37
2019-04-30T08:55:22.449Z,30.57
2019-04-30T09:01:29.225Z,29.03
2019-04-30T09:07:33.728Z,23.07
2019-04-30T09:13:38.967Z,30.03
2019-04-30T09:19:43.674Z,28.27
2019-04-30T09:25:49.675Z,23.47
2019-04-30T09:31:54.488Z,21.80
2019-04-30T09:38:01.881Z,22.33
2019-04-30T09:44:05.750Z,18.73
2019-04-30T09:50:13.564Z,23.90
2019-04-30T09:56:19.342Z,19.90
2019-04-30T10:02:24.109Z,25.37
2019-04-30T10:08:30.735Z,19.33
2019-04-30T10:14:35.325Z,20.40
2019-04-30T10:20:43.775Z,20.87
2019-04-30T10:26:48.335Z,25.10
2019-04-30T10:32:52.873Z,22.47
2019-04-30T10:38:59.329Z,20.37
2019-04-30T10:45:05.389Z,22.93
2019-04-30T10:51:10.086Z,26.37
2019-04-30T10:57:14.708Z,22.10
2019-04-30T11:03:22.853Z,21.10
2019-04-30T11:09:30.691Z,23.17
2019-04-30T11:15:34.021Z,23.33
2019-04-30T11:21:38.770Z,23.17
2019-04-30T11:27:44.060Z,23.13
2019-04-30T11:33:49.276Z,29.97
2019-04-30T11:39:54.142Z,27.33
2019-04-30T11:46:22.328Z,33.50
2019-04-30T11:52:26.901Z,50.00
2019-04-30T11:58:31.495Z,33.13
2019-04-30T12:04:36.079Z,30.70
2019-04-30T12:10:45.050Z,27.33
2019-04-30T12:16:50.687Z,25.37
2019-04-30T12:22:55.367Z,32.50
2019-04-30T12:28:59.921Z,26.23
2019-04-30T12:35:07.215Z,29.17
2019-04-30T12:41:11.871Z,26.63
2019-04-30T12:47:19.292Z,31.50
2019-04-30T12:53:30.550Z,27.13
2019-04-30T12:59:35.644Z,27.03
2019-04-30T13:05:40.264Z,27.07
2019-04-30T13:11:45.259Z,24.33
2019-04-30T13:17:50.257Z,30.40
2019-04-30T13:23:54.802Z,24.87
2019-04-30T13:30:03.670Z,25.80
2019-04-30T13:36:08.770Z,23.30
2019-04-30T13:42:29.242Z,23.90
2019-04-30T13:48:33.622Z,24.93
2019-04-30T13:54:38.261Z,26.73
2019-04-30T14:00:42.885Z,23.40
2019-04-30T14:06:48.747Z,25.13
2019-04-30T14:12:57.992Z,22.27
2019-04-30T14:19:02.639Z,27.40
2019-04-30T14:25:08.323Z,32.30
2019-04-30T14:31:12.875Z,26.57
2019-04-30T14:37:17.442Z,33.53
2019-04-30T14:43:26.455Z,25.17
2019-04-30T14:49:36.084Z,26.87
2019-04-30T14:55:45.094Z,25.30
2019-04-30T15:01:54.091Z,26.90
2019-04-30T15:08:00.699Z,27.10
2019-04-30T15:14:05.613Z,27.00
2019-04-30T15:20:10.787Z,29.07
2019-04-30T15:26:22.115Z,35.57
2019-04-30T15:32:21.764Z,31.27
2019-04-30T15:38:44.289Z,26.97
2019-04-30T15:44:49.642Z,25.00
2019-04-30T15:50:54.479Z,30.50
2019-04-30T15:57:00.451Z,27.37
2019-04-30T16:03:16.162Z,26.63
2019-04-30T16:09:28.442Z,31.30
2019-04-30T16:15:32.950Z,29.47
2019-04-30T16:21:37.582Z,25.70
2019-04-30T16:27:42.138Z,30.60
2019-04-30T16:33:48.685Z,27.77
2019-04-30T16:39:53.043Z,32.57
2019-04-30T16:45:58.890Z,29.17
2019-04-30T16:52:03.713Z,35.70
2019-04-30T16:58:08.976Z,36.20
2019-04-30T17:04:19.216Z,37.77
2019-04-30T17:10:25.598Z,41.87
2019-04-30T17:16:30.308Z,39.73
2019-04-30T17:22:34.865Z,30.93
2019-04-30T17:28:39.435Z,34.73
2019-04-30T17:34:44.022Z,32.50
2019-04-30T17:40:49.625Z,36.27
2019-04-30T17:46:54.420Z,32.30
2019-04-30T17:53:00.651Z,34.97
2019-04-30T17:59:05.621Z,32.20
2019-04-30T18:05:11.387Z,33.40
2019-04-30T18:11:16.157Z,38.20
2019-04-30T18:17:22.270Z,35.50
2019-04-30T18:23:28.480Z,36.07
2019-04-30T18:29:33.111Z,35.00
2019-04-30T18:35:38.804Z,35.13
2019-04-30T18:41:43.557Z,33.03
2019-04-30T18:47:48.135Z,39.67
2019-04-30T18:53:52.699Z,30.43
2019-04-30T18:59:59.112Z,32.17
2019-04-30T19:06:05.343Z,37.03
2019-04-30T19:12:19.434Z,35.00
2019-04-30T19:18:28.265Z,32.53
2019-04-30T19:24:32.902Z,35.43
2019-04-30T19:30:38.993Z,38.27
2019-04-30T19:36:43.673Z,31.23
2019-04-30T19:42:50.749Z,35.20
2019-04-30T19:48:54.566Z,34.97
2019-04-30T19:54:59.129Z,34.30
2019-04-30T20:01:03.832Z,33.23
2019-04-30T20:07:08.830Z,36.97
2019-04-30T20:13:13.496Z,31.83
2019-04-30T20:19:18.077Z,40.60
2019-04-30T20:25:22.695Z,32.93
2019-04-30T20:31:28.773Z,34.90
2019-04-30T20:37:35.139Z,28.57
2019-04-30T20:43:39.693Z,31.50
2019-04-30T20:49:44.279Z,29.10
2019-04-30T20:55:49.520Z,27.30
2019-04-30T21:01:54.231Z,30.10
2019-04-30T21:07:58.774Z,28.47
2019-04-30T21:14:03.782Z,30.03
2019-04-30T21:20:09.812Z,39.67
2019-04-30T21:26:14.434Z,33.63
2019-04-30T21:32:38.289Z,28.63
2019-04-30T21:38:43.295Z,26.43
2019-04-30T21:44:47.849Z,27.00
2019-04-30T21:50:52.410Z,28.23
2019-04-30T21:56:56.986Z,22.43
2019-04-30T22:03:01.804Z,23.50
2019-04-30T22:09:09.750Z,29.30
2019-04-30T22:15:14.762Z,26.27
2019-04-30T22:21:19.332Z,29.27
2019-04-30T22:27:23.900Z,27.47
2019-04-30T22:33:29.232Z,26.07
2019-04-30T22:39:36.394Z,23.43
2019-04-30T22:45:42.604Z,24.93
2019-04-30T22:51:47.163Z,27.90
2019-04-30T22:57:51.800Z,24.70
2019-04-30T23:04:00.430Z,25.70
2019-04-30T23:10:08.028Z,29.00
2019-04-30T23:16:13.252Z,25.73
2019-04-30T23:22:17.826Z,27.10
2019-04-30T23:28:22.499Z,27.97
2019-04-30T23:34:27.141Z,25.63
2019-04-30T23:40:52.398Z,26.73
2019-04-30T23:46:57.027Z,25.27
2019-04-30T23:53:01.614Z,28.63
2019-04-30T23:59:06.252Z,29.97
